Time;durP1;ratioP1;P1;durP2;ratioP2;P2;SDS_P1;SDS_P2;PMS_P1;PMS_P2;Temp;Humidity;BMP_temperature;BMP_pressure;BME280_temperature;BME280_humidity;BME280_pressure;Samples;Min_cycle;Max_cycle;Signal;HPM_P1;HPM_P2
2023/08/16 00:02:16;;;;;;;7.33;5.37;;;22.10;99.40;;;;;;5114904;28;20427;-69
2023/08/16 00:04:45;;;;;;;11.77;5.13;;;22.10;99.20;;;;;;5114541;28;20476;-69
2023/08/16 00:07:12;;;;;;;8.00;5.33;;;22.10;99.20;;;;;;5114050;28;20476;-69
2023/08/16 00:09:40;;;;;;;7.50;4.50;;;22.10;99.20;;;;;;5113724;28;20461;-69
2023/08/16 00:12:11;;;;;;;5.80;4.60;;;22.10;98.90;;;;;;5114033;28;20471;-69
2023/08/16 00:14:42;;;;;;;5.30;4.80;;;22.10;98.70;;;;;;5113508;28;20908;-69
2023/08/16 00:17:09;;;;;;;6.23;4.93;;;22.10;98.50;;;;;;5114435;28;20473;-70
2023/08/16 00:19:38;;;;;;;5.63;4.17;;;22.10;98.40;;;;;;5113197;28;20435;-69
2023/08/16 00:22:07;;;;;;;7.03;4.40;;;22.10;98.00;;;;;;5113829;28;20441;-69
2023/08/16 00:24:34;;;;;;;6.90;4.50;;;22.10;98.00;;;;;;5113891;28;20488;-69
2023/08/16 00:27:01;;;;;;;6.20;4.40;;;22.00;98.20;;;;;;5114303;28;20481;-69
2023/08/16 00:29:31;;;;;;;6.63;5.10;;;21.90;98.70;;;;;;5114456;28;20435;-69
2023/08/16 00:32:02;;;;;;;4.93;4.37;;;21.80;98.90;;;;;;5113819;28;20522;-69
2023/08/16 00:34:29;;;;;;;7.00;4.87;;;21.80;99.00;;;;;;5113382;28;20463;-69
2023/08/16 00:36:58;;;;;;;6.80;5.13;;;21.80;99.00;;;;;;5113805;28;20990;-69
2023/08/16 00:39:26;;;;;;;11.03;4.57;;;21.70;99.20;;;;;;5113743;28;20474;-69
2023/08/16 00:41:54;;;;;;;7.03;5.07;;;21.70;99.30;;;;;;5113987;28;20462;-69
2023/08/16 00:44:21;;;;;;;6.03;4.20;;;21.70;99.30;;;;;;5113115;28;20477;-69
2023/08/16 00:46:53;;;;;;;5.70;5.00;;;21.80;99.30;;;;;;5113632;28;20917;-69
2023/08/16 00:49:20;;;;;;;7.70;5.70;;;21.80;99.20;;;;;;5114459;28;20433;-69
2023/08/16 00:51:48;;;;;;;6.87;4.83;;;21.80;99.10;;;;;;5113653;28;20463;-69
2023/08/16 00:54:15;;;;;;;7.40;4.60;;;21.70;99.20;;;;;;5113527;28;20527;-69
2023/08/16 00:56:44;;;;;;;6.00;5.00;;;21.70;99.20;;;;;;5113553;28;20480;-69
2023/08/16 00:59:14;;;;;;;9.57;5.20;;;21.80;99.10;;;;;;5113821;28;20941;-69
2023/08/16 01:01:42;;;;;;;5.73;4.67;;;21.80;99.00;;;;;;5113925;28;20458;-69
2023/08/16 01:04:10;;;;;;;5.67;4.73;;;21.80;98.80;;;;;;5113525;28;20438;-69
2023/08/16 01:06:37;;;;;;;7.80;5.40;;;21.70;98.70;;;;;;5113548;28;20470;-69
2023/08/16 01:09:04;;;;;;;7.53;6.83;;;21.70;98.60;;;;;;5112789;28;20477;-69
2023/08/16 01:11:38;;;;;;;6.37;4.87;;;21.70;98.50;;;;;;5113421;28;20422;-69
2023/08/16 01:14:14;;;;;;;6.70;5.73;;;21.60;98.60;;;;;;5113772;28;20511;-69
2023/08/16 01:16:45;;;;;;;5.20;4.10;;;21.60;98.70;;;;;;5114122;28;20418;-70
2023/08/16 01:19:21;;;;;;;7.10;5.93;;;21.60;98.80;;;;;;5112047;28;20519;-69
2023/08/16 01:21:54;;;;;;;9.40;5.37;;;21.50;98.60;;;;;;5113448;28;20423;-69
2023/08/16 01:24:27;;;;;;;10.07;5.43;;;21.50;98.60;;;;;;5113778;28;20471;-69
2023/08/16 01:26:56;;;;;;;10.00;5.93;;;21.40;98.60;;;;;;5116216;28;20968;-69
2023/08/16 01:29:24;;;;;;;11.40;6.43;;;21.30;98.90;;;;;;5117577;28;20485;-69
2023/08/16 01:31:53;;;;;;;9.77;5.53;;;21.30;99.40;;;;;;5117088;28;20513;-69
2023/08/16 01:34:25;;;;;;;6.20;4.97;;;21.10;99.80;;;;;;5117331;28;20435;-69
2023/08/16 01:36:54;;;;;;;4.80;4.30;;;21.20;99.70;;;;;;5117350;28;20454;-69
2023/08/16 01:39:21;;;;;;;7.90;5.17;;;21.10;99.00;;;;;;5117269;28;20491;-69
2023/08/16 01:41:52;;;;;;;7.03;5.50;;;21.10;98.90;;;;;;5116840;28;20469;-69
2023/08/16 01:44:22;;;;;;;8.33;5.40;;;21.10;98.80;;;;;;5116641;28;20506;-69
2023/08/16 01:46:52;;;;;;;7.50;5.23;;;21.10;99.10;;;;;;5117137;28;20444;-69
2023/08/16 01:49:21;;;;;;;7.97;5.23;;;21.00;98.90;;;;;;5117016;28;20466;-69
2023/08/16 01:51:50;;;;;;;6.40;5.20;;;20.90;98.90;;;;;;5116999;28;20451;-69
2023/08/16 01:54:19;;;;;;;6.17;4.83;;;20.90;98.90;;;;;;5116992;28;20479;-69
2023/08/16 01:56:46;;;;;;;8.70;6.20;;;20.80;99.10;;;;;;5116199;28;20501;-69
2023/08/16 01:59:15;;;;;;;8.47;4.97;;;20.80;99.20;;;;;;5116613;28;20438;-69
2023/08/16 02:01:43;;;;;;;9.60;4.63;;;20.80;98.90;;;;;;5116858;28;20435;-69
2023/08/16 02:04:15;;;;;;;7.20;5.97;;;20.80;99.10;;;;;;5116903;28;20839;-69
2023/08/16 02:06:43;;;;;;;6.30;4.70;;;20.70;99.10;;;;;;5116737;28;20523;-69
2023/08/16 02:09:10;;;;;;;6.00;4.63;;;20.70;99.30;;;;;;5115821;28;20519;-69
2023/08/16 02:11:38;;;;;;;7.53;5.60;;;20.70;98.90;;;;;;5116832;28;20447;-69
2023/08/16 02:14:07;;;;;;;7.90;5.37;;;20.70;98.90;;;;;;5116775;28;20434;-69
2023/08/16 02:16:35;;;;;;;6.50;5.80;;;20.70;99.10;;;;;;5116458;28;20445;-69
2023/08/16 02:19:03;;;;;;;6.70;5.77;;;20.70;99.20;;;;;;5116239;28;20433;-69
2023/08/16 02:21:32;;;;;;;8.70;4.30;;;20.70;99.30;;;;;;5116727;28;20426;-69
2023/08/16 02:23:59;;;;;;;6.37;5.60;;;20.70;98.40;;;;;;5116413;28;20433;-69
2023/08/16 02:26:30;;;;;;;8.63;5.40;;;20.70;97.80;;;;;;5116059;28;20441;-69
2023/08/16 02:28:59;;;;;;;6.97;5.13;;;20.60;98.20;;;;;;5115647;28;20981;-70
2023/08/16 02:31:27;;;;;;;10.90;5.00;;;20.60;98.30;;;;;;5115364;28;20458;-70
2023/08/16 02:33:54;;;;;;;5.90;5.13;;;20.60;98.30;;;;;;5116037;28;20488;-69
2023/08/16 02:36:23;;;;;;;6.47;4.63;;;20.50;98.20;;;;;;5115757;28;20492;-69
2023/08/16 02:38:55;;;;;;;5.57;4.87;;;20.50;98.30;;;;;;5115634;28;20810;-69
2023/08/16 02:41:30;;;;;;;6.50;5.07;;;20.50;98.60;;;;;;5116115;28;20450;-69
2023/08/16 02:44:02;;;;;;;8.03;5.20;;;20.40;98.70;;;;;;5115807;28;20908;-69
2023/08/16 02:46:29;;;;;;;4.90;4.20;;;20.40;98.80;;;;;;5115747;28;20921;-69
2023/08/16 02:48:56;;;;;;;10.30;5.33;;;20.30;98.30;;;;;;5116014;28;20524;-69
2023/08/16 02:51:24;;;;;;;6.57;4.73;;;20.30;98.40;;;;;;5115392;28;20442;-69
2023/08/16 02:53:51;;;;;;;8.40;6.07;;;20.20;98.60;;;;;;5115479;28;20435;-69
2023/08/16 02:56:19;;;;;;;9.93;5.87;;;20.10;98.90;;;;;;5115670;28;20478;-71
2023/08/16 02:58:46;;;;;;;6.37;4.80;;;20.10;99.50;;;;;;5114455;28;20526;-69
2023/08/16 03:01:14;;;;;;;7.80;4.80;;;20.10;99.60;;;;;;5115805;28;20818;-70
2023/08/16 03:03:46;;;;;;;7.57;5.20;;;20.00;99.90;;;;;;5116026;28;20439;-69
2023/08/16 03:06:13;;;;;;;8.37;5.47;;;20.00;99.90;;;;;;5115618;28;20480;-69
2023/08/16 03:08:42;;;;;;;6.83;4.77;;;19.90;99.90;;;;;;5113601;28;20561;-69
2023/08/16 03:11:14;;;;;;;5.63;5.13;;;20.00;99.90;;;;;;5115316;28;20948;-69
2023/08/16 03:13:43;;;;;;;6.67;5.23;;;20.00;99.90;;;;;;5115120;28;20427;-70
2023/08/16 03:16:14;;;;;;;6.60;5.10;;;20.00;99.70;;;;;;5115462;28;20486;-69
2023/08/16 03:18:41;;;;;;;12.23;5.87;;;19.80;99.90;;;;;;5115668;28;20417;-69
2023/08/16 03:21:08;;;;;;;5.30;4.70;;;19.70;99.90;;;;;;5115282;28;20551;-69
2023/08/16 03:23:35;;;;;;;8.80;4.60;;;19.70;99.90;;;;;;5115260;28;20472;-69
2023/08/16 03:26:04;;;;;;;6.70;5.63;;;19.70;99.90;;;;;;5115185;28;20849;-69
2023/08/16 03:28:31;;;;;;;6.53;5.00;;;19.80;99.90;;;;;;5114992;28;20520;-69
2023/08/16 03:31:06;;;;;;;7.30;5.20;;;19.70;99.90;;;;;;5115059;28;20470;-69
2023/08/16 03:33:34;;;;;;;5.50;4.03;;;19.80;99.90;;;;;;5114521;28;20486;-69
2023/08/16 03:36:09;;;;;;;5.70;3.93;;;19.80;99.90;;;;;;5114956;28;20487;-69
2023/08/16 03:38:37;;;;;;;6.07;4.40;;;19.80;99.30;;;;;;5115298;28;20473;-69
2023/08/16 03:41:06;;;;;;;9.13;4.77;;;19.80;98.90;;;;;;5114630;28;20526;-69
2023/08/16 03:43:35;;;;;;;6.20;4.43;;;19.70;98.90;;;;;;5114702;28;20517;-68
2023/08/16 03:46:02;;;;;;;5.93;4.40;;;19.70;99.20;;;;;;5115288;28;20513;-69
2023/08/16 03:48:29;;;;;;;5.73;4.60;;;19.70;99.50;;;;;;5113984;28;20474;-68
2023/08/16 03:50:56;;;;;;;8.30;4.93;;;19.70;99.40;;;;;;5114560;28;20833;-68
2023/08/16 03:53:23;;;;;;;7.33;5.40;;;19.70;99.60;;;;;;5114290;28;20521;-72
2023/08/16 03:55:56;;;;;;;7.13;4.63;;;19.60;99.80;;;;;;5114725;28;20524;-69
2023/08/16 03:58:24;;;;;;;4.07;3.17;;;19.60;99.90;;;;;;5114062;28;20517;-69
2023/08/16 04:00:51;;;;;;;4.93;4.37;;;19.60;99.80;;;;;;5114636;28;20830;-69
2023/08/16 04:03:18;;;;;;;5.67;4.20;;;19.60;99.60;;;;;;5114254;28;20928;-69
2023/08/16 04:05:45;;;;;;;5.57;4.00;;;19.60;99.50;;;;;;5114180;28;20951;-69
2023/08/16 04:08:12;;;;;;;7.60;4.33;;;19.60;99.60;;;;;;5114491;28;20501;-68
2023/08/16 04:10:41;;;;;;;6.63;4.00;;;19.60;99.40;;;;;;5114639;28;20841;-69
2023/08/16 04:13:08;;;;;;;7.40;4.30;;;19.50;99.10;;;;;;5113875;28;20830;-68
2023/08/16 04:15:36;;;;;;;4.43;3.67;;;19.50;99.10;;;;;;5113660;28;20438;-68
2023/08/16 04:18:04;;;;;;;6.80;4.10;;;19.50;99.10;;;;;;5114175;28;20929;-69
2023/08/16 04:20:31;;;;;;;4.67;4.20;;;19.50;99.30;;;;;;5114388;28;20770;-69
2023/08/16 04:22:58;;;;;;;6.40;4.27;;;19.50;99.30;;;;;;5113719;28;20437;-69
2023/08/16 04:25:25;;;;;;;5.67;4.77;;;19.50;99.40;;;;;;5114032;28;20499;-68
2023/08/16 04:27:52;;;;;;;5.63;4.20;;;19.50;99.20;;;;;;5113934;28;20510;-69
2023/08/16 04:30:19;;;;;;;5.90;4.23;;;19.50;99.10;;;;;;5113574;28;20523;-69
2023/08/16 04:32:47;;;;;;;5.97;4.20;;;19.50;99.20;;;;;;5113966;28;20435;-68
2023/08/16 04:35:14;;;;;;;6.77;4.17;;;19.50;99.00;;;;;;5113713;28;20517;-69
2023/08/16 04:37:41;;;;;;;4.77;4.10;;;19.50;98.90;;;;;;5113571;28;20491;-69
2023/08/16 04:40:09;;;;;;;5.70;3.90;;;19.50;98.70;;;;;;5113476;28;20470;-69
2023/08/16 04:42:36;;;;;;;5.43;4.30;;;19.50;98.70;;;;;;5112964;28;20473;-69
2023/08/16 04:45:06;;;;;;;4.80;3.60;;;19.50;98.70;;;;;;5113509;28;20485;-68
2023/08/16 04:47:33;;;;;;;5.00;3.57;;;19.50;98.80;;;;;;5113412;28;20440;-69
2023/08/16 04:50:03;;;;;;;5.93;4.47;;;19.50;99.00;;;;;;5113344;28;21055;-69
2023/08/16 04:52:30;;;;;;;6.70;4.20;;;19.50;99.20;;;;;;5113498;28;20890;-69
2023/08/16 04:54:58;;;;;;;4.40;4.00;;;19.40;99.30;;;;;;5113644;28;20512;-69
2023/08/16 04:57:25;;;;;;;5.63;4.00;;;19.50;99.50;;;;;;5113120;28;20450;-69
2023/08/16 04:59:51;;;;;;;5.03;4.00;;;19.40;99.60;;;;;;5113906;28;20438;-69
2023/08/16 05:02:18;;;;;;;5.57;4.10;;;19.50;99.70;;;;;;5117434;28;20766;-69
2023/08/16 05:04:45;;;;;;;4.13;3.27;;;19.50;99.90;;;;;;5117366;28;21023;-68
2023/08/16 05:07:13;;;;;;;6.40;4.30;;;19.50;99.90;;;;;;5117107;28;20520;-69
2023/08/16 05:09:40;;;;;;;4.87;3.77;;;19.60;99.90;;;;;;5117527;28;20879;-68
2023/08/16 05:12:08;;;;;;;6.33;3.67;;;19.70;99.90;;;;;;5117526;28;20458;-69
2023/08/16 05:14:35;;;;;;;6.10;3.63;;;19.80;99.70;;;;;;5117526;28;20447;-69
2023/08/16 05:17:02;;;;;;;4.53;3.40;;;19.80;99.70;;;;;;5116880;28;20517;-69
2023/08/16 05:19:29;;;;;;;5.50;3.63;;;19.80;99.70;;;;;;5117438;28;20445;-69
2023/08/16 05:21:56;;;;;;;6.10;3.47;;;19.90;99.60;;;;;;5117547;28;20466;-69
2023/08/16 05:24:25;;;;;;;6.73;4.43;;;19.90;99.40;;;;;;5116974;28;20521;-69
2023/08/16 05:26:51;;;;;;;6.67;4.63;;;19.90;99.30;;;;;;5117230;28;20624;-69
2023/08/16 05:29:18;;;;;;;9.50;7.03;;;19.90;99.10;;;;;;5115005;28;20663;-68
2023/08/16 05:31:45;;;;;;;5.63;4.80;;;19.90;99.40;;;;;;5116641;28;20474;-69
2023/08/16 05:34:15;;;;;;;6.70;4.30;;;20.00;99.00;;;;;;5117206;28;20517;-69
2023/08/16 05:36:53;;;;;;;5.23;3.10;;;20.00;99.20;;;;;;5116854;28;20430;-69
2023/08/16 05:39:20;;;;;;;5.30;3.50;;;20.00;99.40;;;;;;5116983;28;20426;-69
2023/08/16 05:41:48;;;;;;;5.77;4.67;;;20.10;99.70;;;;;;5116611;28;20992;-69
2023/08/16 05:44:15;;;;;;;8.53;4.10;;;20.10;99.80;;;;;;5116866;28;20476;-69
2023/08/16 05:46:42;;;;;;;4.63;3.73;;;20.20;99.90;;;;;;5116527;28;20517;-68
2023/08/16 05:49:09;;;;;;;5.00;4.20;;;20.30;99.90;;;;;;5116499;28;20502;-68
2023/08/16 05:51:36;;;;;;;5.37;4.27;;;20.40;99.90;;;;;;5116519;28;20518;-72
2023/08/16 05:54:04;;;;;;;6.30;4.33;;;20.50;99.90;;;;;;5116692;28;20525;-69
2023/08/16 05:56:31;;;;;;;4.77;3.37;;;20.50;99.90;;;;;;5116468;28;20862;-69
2023/08/16 05:58:59;;;;;;;7.37;3.97;;;20.60;99.90;;;;;;5116659;28;20470;-69
2023/08/16 06:01:26;;;;;;;7.70;4.57;;;20.70;99.90;;;;;;5116524;28;20836;-69
2023/08/16 06:03:53;;;;;;;6.80;5.10;;;20.70;99.90;;;;;;5115810;28;20541;-68
2023/08/16 06:06:20;;;;;;;8.17;5.10;;;20.80;99.90;;;;;;5116242;28;20526;-69
2023/08/16 06:08:47;;;;;;;6.83;5.10;;;20.90;99.90;;;;;;5116345;28;20498;-68
2023/08/16 06:11:13;;;;;;;5.10;3.93;;;21.00;99.90;;;;;;5105924;28;20495;-69
2023/08/16 06:13:41;;;;;;;5.90;4.40;;;21.10;99.90;;;;;;5094540;28;20993;-69
2023/08/16 06:16:10;;;;;;;5.40;3.90;;;21.20;99.90;;;;;;5095104;28;20424;-71
2023/08/16 06:18:37;;;;;;;7.10;4.00;;;21.20;99.90;;;;;;5095863;28;20501;-69
2023/08/16 06:21:04;;;;;;;8.83;4.30;;;21.30;99.90;;;;;;5112107;28;20521;-70
2023/08/16 06:23:31;;;;;;;4.33;3.07;;;21.40;99.90;;;;;;5115939;28;20796;-69
2023/08/16 06:25:58;;;;;;;6.83;3.63;;;21.40;99.90;;;;;;5115746;28;20925;-69
2023/08/16 06:28:25;;;;;;;5.53;3.33;;;21.50;99.90;;;;;;5115981;28;20427;-69
2023/08/16 06:30:52;;;;;;;8.83;3.23;;;21.60;99.50;;;;;;5115915;28;20507;-69
2023/08/16 06:33:22;;;;;;;7.87;3.30;;;21.50;98.20;;;;;;5115987;28;20441;-69
2023/08/16 06:35:51;;;;;;;3.60;2.60;;;21.70;98.20;;;;;;5115892;28;20437;-69
2023/08/16 06:38:18;;;;;;;3.70;2.70;;;21.70;97.80;;;;;;5115519;28;20435;-69
2023/08/16 06:40:45;;;;;;;4.70;3.17;;;21.80;97.80;;;;;;5115813;28;20439;-69
2023/08/16 06:43:23;;;;;;;4.60;3.27;;;21.80;97.60;;;;;;5115788;28;20431;-69
2023/08/16 06:45:50;;;;;;;5.63;2.77;;;21.80;97.10;;;;;;5115513;27;20451;-68
2023/08/16 06:48:17;;;;;;;4.67;3.20;;;21.90;97.20;;;;;;5115667;28;20925;-68
2023/08/16 06:50:46;;;;;;;9.43;3.43;;;22.00;97.50;;;;;;5115275;28;20906;-68
2023/08/16 06:53:13;;;;;;;4.50;3.63;;;22.10;97.50;;;;;;5115306;28;20441;-69
2023/08/16 06:55:40;;;;;;;13.40;4.47;;;22.10;96.20;;;;;;5115759;28;20488;-69
2023/08/16 06:58:07;;;;;;;4.17;2.67;;;22.20;96.30;;;;;;5112355;28;20470;-69
2023/08/16 07:00:35;;;;;;;4.00;2.90;;;22.20;96.50;;;;;;5114497;28;20462;-69
2023/08/16 07:03:03;;;;;;;4.60;2.73;;;22.30;96.40;;;;;;5114791;28;20781;-69
2023/08/16 07:05:31;;;;;;;4.40;2.70;;;22.40;96.50;;;;;;5115175;28;20431;-69
2023/08/16 07:08:00;;;;;;;8.37;3.20;;;22.50;96.30;;;;;;5114953;28;20434;-69
2023/08/16 07:10:27;;;;;;;4.70;3.33;;;22.60;96.50;;;;;;5114344;28;20478;-72
2023/08/16 07:12:54;;;;;;;4.13;3.40;;;22.70;97.00;;;;;;5114555;28;20929;-69
2023/08/16 07:15:21;;;;;;;3.70;2.90;;;22.80;97.30;;;;;;5115047;28;20430;-68
2023/08/16 07:17:54;;;;;;;8.13;3.40;;;23.00;97.50;;;;;;5114780;28;20774;-69
2023/08/16 07:20:21;;;;;;;6.00;3.00;;;23.10;97.20;;;;;;5114734;28;20431;-69
2023/08/16 07:22:48;;;;;;;5.27;3.27;;;23.20;96.90;;;;;;5112357;28;20427;-69
2023/08/16 07:25:16;;;;;;;3.93;3.53;;;23.30;96.40;;;;;;5114269;27;20430;-69
2023/08/16 07:27:43;;;;;;;5.20;2.90;;;23.30;95.30;;;;;;5114587;28;21011;-69
2023/08/16 07:30:12;;;;;;;5.03;3.50;;;23.40;94.50;;;;;;5113761;28;20948;-68
2023/08/16 07:32:39;;;;;;;6.63;2.80;;;23.50;94.20;;;;;;5114869;28;20438;-68
2023/08/16 07:35:07;;;;;;;4.80;2.90;;;23.60;94.50;;;;;;5114748;28;20470;-69
2023/08/16 07:37:34;;;;;;;4.10;3.00;;;23.80;94.90;;;;;;5114818;28;20435;-73
2023/08/16 07:40:03;;;;;;;4.23;1.90;;;23.90;94.40;;;;;;5114432;28;20985;-68
2023/08/16 07:42:31;;;;;;;4.10;2.63;;;24.10;93.70;;;;;;5114321;28;20438;-68
2023/08/16 07:44:59;;;;;;;4.73;2.77;;;24.20;92.80;;;;;;5114639;28;20550;-68
2023/08/16 07:47:27;;;;;;;7.67;2.27;;;24.20;91.50;;;;;;5114247;28;20521;-69
2023/08/16 07:49:55;;;;;;;4.03;2.57;;;24.30;92.20;;;;;;5114555;28;20873;-69
2023/08/16 07:52:22;;;;;;;3.70;2.20;;;24.50;92.60;;;;;;5114584;28;20473;-68
2023/08/16 07:54:49;;;;;;;6.67;3.00;;;24.60;92.40;;;;;;5114564;28;20534;-69
2023/08/16 07:57:16;;;;;;;5.07;2.50;;;24.80;92.00;;;;;;5114052;27;20492;-69
2023/08/16 07:59:45;;;;;;;3.90;2.23;;;24.90;91.40;;;;;;5114288;28;20475;-69
2023/08/16 08:02:12;;;;;;;3.90;2.70;;;25.10;91.20;;;;;;5114304;28;20480;-69
2023/08/16 08:04:39;;;;;;;6.93;2.27;;;25.20;91.00;;;;;;5114310;28;20469;-69
2023/08/16 08:07:06;;;;;;;5.73;2.93;;;25.40;89.90;;;;;;5114254;28;20455;-69
2023/08/16 08:09:33;;;;;;;3.20;2.20;;;25.60;87.80;;;;;;5113890;28;20547;-69
2023/08/16 08:12:01;;;;;;;4.00;2.60;;;25.80;86.90;;;;;;5113839;28;20522;-69
2023/08/16 08:14:28;;;;;;;3.90;2.50;;;25.80;84.70;;;;;;5113842;28;20430;-69
2023/08/16 08:16:56;;;;;;;3.93;2.40;;;25.90;83.50;;;;;;5113693;28;20435;-69
2023/08/16 08:19:23;;;;;;;5.33;2.73;;;25.90;80.30;;;;;;5114079;28;20812;-69
2023/08/16 08:21:51;;;;;;;3.63;2.20;;;26.00;80.10;;;;;;5114023;28;20507;-68
2023/08/16 08:24:18;;;;;;;4.60;2.40;;;26.10;79.50;;;;;;5113707;28;20920;-68
2023/08/16 08:26:45;;;;;;;4.00;2.50;;;26.20;78.90;;;;;;5113962;28;20477;-69
2023/08/16 08:29:12;;;;;;;4.20;2.90;;;26.40;78.60;;;;;;5113554;28;20474;-69
2023/08/16 08:31:39;;;;;;;5.07;2.27;;;26.50;79.60;;;;;;5113667;28;20517;-69
2023/08/16 08:34:08;;;;;;;4.30;2.20;;;26.70;78.30;;;;;;5113962;28;20472;-69
2023/08/16 08:36:35;;;;;;;5.27;2.53;;;26.90;77.10;;;;;;5113017;28;20933;-69
2023/08/16 08:39:02;;;;;;;6.30;2.33;;;27.00;77.00;;;;;;5113582;28;20522;-69
2023/08/16 08:41:32;;;;;;;3.43;2.13;;;27.10;75.60;;;;;;5113502;28;20492;-69
2023/08/16 08:44:01;;;;;;;3.57;2.30;;;27.20;73.30;;;;;;5113499;28;20455;-69
2023/08/16 08:46:30;;;;;;;4.03;2.73;;;27.30;75.40;;;;;;5113782;28;20503;-69
2023/08/16 08:49:01;;;;;;;4.50;2.37;;;27.50;75.90;;;;;;5113375;28;20462;-69
2023/08/16 08:51:31;;;;;;;4.20;2.67;;;27.80;76.40;;;;;;5113755;28;20458;-68
2023/08/16 08:53:58;;;;;;;3.97;2.23;;;28.00;75.90;;;;;;5113440;28;20499;-69
2023/08/16 08:56:28;;;;;;;4.60;2.50;;;28.20;76.60;;;;;;5113338;28;20472;-70
2023/08/16 08:58:56;;;;;;;3.70;2.23;;;28.40;76.20;;;;;;5113718;28;20438;-69
2023/08/16 09:01:24;;;;;;;4.57;2.63;;;28.60;72.80;;;;;;5113380;28;20442;-69
2023/08/16 09:03:54;;;;;;;3.53;2.17;;;28.70;70.50;;;;;;5113613;28;20441;-69
2023/08/16 09:06:21;;;;;;;3.63;2.33;;;28.90;71.40;;;;;;5113679;28;20437;-69
2023/08/16 09:08:49;;;;;;;2.90;2.10;;;29.00;72.70;;;;;;5113330;28;20431;-69
2023/08/16 09:11:17;;;;;;;6.53;2.47;;;29.10;68.40;;;;;;5113220;28;20479;-69
2023/08/16 09:13:46;;;;;;;3.20;1.57;;;29.30;69.00;;;;;;5113202;28;20471;-69
2023/08/16 09:16:13;;;;;;;3.23;1.80;;;29.50;66.50;;;;;;5113415;28;20513;-69
2023/08/16 09:18:47;;;;;;;3.83;1.67;;;29.60;65.90;;;;;;5113490;28;20431;-69
2023/08/16 09:21:18;;;;;;;3.03;1.93;;;29.80;65.40;;;;;;5113623;28;20453;-69
2023/08/16 09:23:45;;;;;;;5.90;1.97;;;30.00;64.40;;;;;;5113583;28;20778;-69
2023/08/16 09:26:18;;;;;;;3.00;2.20;;;30.20;63.40;;;;;;5113151;28;20992;-69
2023/08/16 09:28:45;;;;;;;3.03;1.90;;;30.30;62.50;;;;;;5113342;28;20521;-69
2023/08/16 09:31:12;;;;;;;2.73;1.67;;;30.50;60.90;;;;;;5113036;28;20470;-69
2023/08/16 09:33:39;;;;;;;3.03;2.03;;;30.60;61.40;;;;;;5113357;28;20431;-69
2023/08/16 09:36:06;;;;;;;3.10;1.80;;;30.70;59.20;;;;;;5112910;28;20434;-69
2023/08/16 09:38:39;;;;;;;3.30;1.90;;;30.80;58.10;;;;;;5113321;28;20488;-69
2023/08/16 09:41:14;;;;;;;3.50;2.10;;;30.90;58.70;;;;;;5112960;28;20455;-69
2023/08/16 09:43:42;;;;;;;3.23;1.90;;;31.00;58.40;;;;;;5112942;28;20419;-69
2023/08/16 09:46:10;;;;;;;2.60;1.40;;;31.20;58.10;;;;;;5112950;28;20972;-69
2023/08/16 09:48:37;;;;;;;3.13;1.70;;;31.30;57.90;;;;;;5116151;28;20431;-69
2023/08/16 09:51:04;;;;;;;3.03;1.73;;;31.50;57.30;;;;;;5116776;28;20546;-69
2023/08/16 09:53:32;;;;;;;3.07;2.30;;;31.60;57.40;;;;;;5116448;28;20463;-69
2023/08/16 09:56:00;;;;;;;5.90;2.00;;;31.70;56.30;;;;;;5116799;28;20477;-70
2023/08/16 09:58:28;;;;;;;4.13;2.53;;;31.90;56.00;;;;;;5116309;28;20909;-69
2023/08/16 10:00:58;;;;;;;3.70;2.10;;;32.00;55.10;;;;;;5116675;28;20511;-69
2023/08/16 10:03:25;;;;;;;7.23;2.60;;;32.00;54.60;;;;;;5116198;28;20513;-69
2023/08/16 10:05:54;;;;;;;3.20;2.10;;;32.00;54.30;;;;;;5116486;28;20441;-70
2023/08/16 10:08:23;;;;;;;2.93;2.07;;;32.10;54.50;;;;;;5116522;28;20781;-69
2023/08/16 10:10:53;;;;;;;4.10;2.00;;;32.10;55.00;;;;;;5116178;27;20484;-69
2023/08/16 10:13:20;;;;;;;3.30;2.40;;;32.20;54.70;;;;;;5116024;28;20800;-69
2023/08/16 10:15:49;;;;;;;4.83;2.20;;;32.30;54.70;;;;;;5116212;28;20542;-69
2023/08/16 10:18:20;;;;;;;9.90;2.47;;;32.40;54.70;;;;;;5116138;28;20771;-69
2023/08/16 10:20:49;;;;;;;3.53;2.23;;;32.50;53.70;;;;;;5115799;28;20518;-69
2023/08/16 10:23:19;;;;;;;6.10;2.90;;;32.60;52.80;;;;;;5116046;28;20441;-69
2023/08/16 10:25:49;;;;;;;5.43;2.43;;;32.70;52.60;;;;;;5115732;28;20517;-69
2023/08/16 10:28:20;;;;;;;3.40;2.50;;;32.80;52.40;;;;;;5115507;28;20431;-69
2023/08/16 10:30:50;;;;;;;5.40;3.00;;;32.80;52.30;;;;;;5116008;28;20549;-69
2023/08/16 10:33:24;;;;;;;5.10;2.83;;;32.90;51.80;;;;;;5115762;28;20442;-69
2023/08/16 10:35:52;;;;;;;3.23;2.43;;;33.00;50.80;;;;;;5115520;28;20916;-69
2023/08/16 10:38:19;;;;;;;4.20;2.60;;;33.10;51.60;;;;;;5115560;28;20520;-69
2023/08/16 10:40:58;;;;;;;3.67;2.67;;;33.10;50.60;;;;;;5115772;28;20438;-69
2023/08/16 10:43:32;;;;;;;6.50;2.63;;;33.10;51.00;;;;;;5115725;28;20423;-69
2023/08/16 10:45:59;;;;;;;3.60;2.30;;;33.20;51.30;;;;;;5115633;28;20491;-69
2023/08/16 10:48:33;;;;;;;4.70;2.53;;;33.30;51.10;;;;;;5115287;28;20437;-69
2023/08/16 10:51:04;;;;;;;3.50;2.03;;;33.40;51.10;;;;;;5115471;28;20466;-69
2023/08/16 10:53:31;;;;;;;3.23;2.30;;;33.40;50.20;;;;;;5115167;28;20929;-69
2023/08/16 10:55:58;;;;;;;3.53;2.30;;;33.50;49.80;;;;;;5115081;28;20431;-69
2023/08/16 10:58:28;;;;;;;3.27;2.10;;;33.50;48.30;;;;;;5114817;28;20481;-69
2023/08/16 11:00:57;;;;;;;3.40;2.60;;;33.50;48.30;;;;;;5115392;28;20937;-69
2023/08/16 11:03:32;;;;;;;4.77;1.90;;;33.60;47.90;;;;;;5114983;28;20423;-69
2023/08/16 11:06:00;;;;;;;5.37;2.57;;;33.60;47.40;;;;;;5114416;28;20517;-69
2023/08/16 11:08:31;;;;;;;4.60;2.60;;;33.60;47.80;;;;;;5115122;28;20783;-69
2023/08/16 11:10:58;;;;;;;6.50;2.30;;;33.60;47.70;;;;;;5110651;28;20975;-70
2023/08/16 11:13:28;;;;;;;4.93;2.40;;;33.70;49.00;;;;;;5114668;28;20493;-69
2023/08/16 11:15:55;;;;;;;3.40;2.37;;;33.70;47.10;;;;;;5114631;28;20462;-69
2023/08/16 11:18:27;;;;;;;2.93;1.80;;;33.70;47.70;;;;;;5114603;28;20977;-69
2023/08/16 11:20:59;;;;;;;3.53;1.60;;;33.70;48.80;;;;;;5114742;28;20779;-69
2023/08/16 11:23:32;;;;;;;3.57;2.10;;;33.80;46.10;;;;;;5114911;28;20423;-69
2023/08/16 11:26:00;;;;;;;3.47;2.07;;;33.80;45.00;;;;;;5114875;28;20422;-69
2023/08/16 11:28:28;;;;;;;3.23;2.07;;;33.80;45.30;;;;;;5114285;28;20538;-69
2023/08/16 11:30:58;;;;;;;3.40;2.00;;;33.90;46.60;;;;;;5114677;28;20889;-69
2023/08/16 11:33:27;;;;;;;2.70;1.57;;;33.90;45.90;;;;;;5114092;28;20439;-69
2023/08/16 11:35:55;;;;;;;3.03;1.70;;;34.00;45.20;;;;;;5113793;28;20438;-69
2023/08/16 11:38:24;;;;;;;3.63;2.07;;;34.00;46.30;;;;;;5114201;28;20469;-69
2023/08/16 11:40:52;;;;;;;3.23;1.87;;;34.10;45.90;;;;;;5109603;28;20451;-69
2023/08/16 11:43:19;;;;;;;3.40;2.10;;;34.10;45.90;;;;;;5114490;28;20487;-69
2023/08/16 11:45:52;;;;;;;2.97;1.80;;;34.10;44.20;;;;;;5111724;28;20458;-70
2023/08/16 11:48:18;;;;;;;3.60;2.23;;;34.20;45.40;;;;;;5112742;28;20830;-71
2023/08/16 11:50:45;;;;;;;2.90;1.57;;;34.20;43.60;;;;;;5112629;28;20565;-69
2023/08/16 11:53:16;;;;;;;3.37;1.90;;;34.20;42.10;;;;;;5111019;28;20511;-69
2023/08/16 11:55:57;;;;;;;2.93;1.77;;;34.10;41.60;;;;;;5097652;28;20452;-69
2023/08/16 11:58:24;;;;;;;3.97;1.90;;;34.00;42.30;;;;;;5112580;28;20433;-69
2023/08/16 12:00:51;;;;;;;4.50;1.47;;;34.00;43.20;;;;;;5113435;28;20462;-69
2023/08/16 12:03:18;;;;;;;2.50;1.50;;;34.00;42.30;;;;;;5098882;28;20524;-69
2023/08/16 12:05:48;;;;;;;3.90;1.90;;;33.90;42.80;;;;;;5093865;28;20431;-69
2023/08/16 12:08:21;;;;;;;3.27;1.80;;;33.90;42.90;;;;;;5093182;28;20868;-70
2023/08/16 12:10:54;;;;;;;2.47;1.60;;;33.90;43.00;;;;;;5092702;28;20483;-69
2023/08/16 12:13:23;;;;;;;3.13;2.00;;;33.90;43.10;;;;;;5093268;28;20430;-69
2023/08/16 12:15:50;;;;;;;3.60;2.00;;;33.90;42.10;;;;;;5093227;28;20930;-69
2023/08/16 12:18:18;;;;;;;2.97;1.90;;;33.90;43.40;;;;;;5093168;28;20810;-69
2023/08/16 12:20:50;;;;;;;3.33;1.57;;;33.90;43.30;;;;;;5093459;28;20436;-69
2023/08/16 12:23:18;;;;;;;3.30;1.87;;;33.90;42.70;;;;;;5092982;28;20420;-69
2023/08/16 12:25:45;;;;;;;4.33;1.97;;;33.90;42.10;;;;;;5092890;28;20459;-69
2023/08/16 12:28:12;;;;;;;3.60;1.60;;;33.90;42.70;;;;;;5092575;28;20432;-69
2023/08/16 12:30:39;;;;;;;2.80;1.60;;;33.90;42.10;;;;;;5092776;28;20471;-69
2023/08/16 12:33:07;;;;;;;3.00;2.03;;;33.90;41.00;;;;;;5092785;28;20842;-69
2023/08/16 12:35:34;;;;;;;4.87;2.17;;;33.90;40.50;;;;;;5092579;28;20428;-69
2023/08/16 12:38:04;;;;;;;12.70;5.67;;;33.90;41.40;;;;;;5093277;28;20446;-74
2023/08/16 12:40:33;;;;;;;5.93;3.20;;;33.80;41.70;;;;;;5111874;28;20462;-69
2023/08/16 12:43:02;;;;;;;3.70;2.23;;;33.80;42.00;;;;;;5111970;28;20940;-69
2023/08/16 12:45:29;;;;;;;4.97;2.90;;;33.80;43.70;;;;;;5112393;28;20796;-69
2023/08/16 12:47:56;;;;;;;3.73;1.97;;;33.90;42.40;;;;;;5112451;28;20522;-69
2023/08/16 12:50:23;;;;;;;3.37;2.37;;;33.90;42.40;;;;;;5112456;28;20470;-69
2023/08/16 12:52:50;;;;;;;3.00;1.90;;;33.90;42.70;;;;;;5112380;28;20541;-71